PWSweather.com
Personal Weather Stations
Station Observations
COONRAPIDS
Minneapolis, MN 55433

Minneapolis, MN 55433

Lat: 45.187721, Lon: -93.36828

Elevation: 898

Station Type: Davis Vantage Pro 2

High Low Average
Temperature 58.1°F14.5°C 23.9°F-4.5°C 38.4°F3.6°C
Dew Point 30.5°F-0.8°C 19.4°F-7.0°C 25.0°F-3.9°C
Winds 4.6 mph 7.4 kmh Calm Calm 1.0 mph S1.6 kmh S
Wind Gusts 12.7 mph20.4 kmh -- 1.0 mph1.6 kmh
Humidity 85% 32% 62%
Pressure 30.33 in1027.1 mb 29.97 in1014.9 mb -
Precipitation 0.00 in0.0 mm - -
Hour Temp Dew Point Humidity Winds Wind Gusts Pressure Precip Precip Rate Daily Precip Total
12:00 AM 26.5°F-3.1°C 20.0°F-6.7°C 76% Calm Calm -- 30.33 in1027.1 mb - 0.00 in0.0 mm 0.00 in0.0 mm
12:10 AM 26.3°F-3.2°C 19.8°F-6.8°C 76% Calm Calm -- 30.33 in1027.1 mb - 0.00 in0.0 mm 0.00 in0.0 mm
12:20 AM 26.1°F-3.3°C 19.9°F-6.7°C 77% Calm Calm -- 30.32 in1026.8 mb - 0.00 in0.0 mm 0.00 in0.0 mm
12:30 AM 26.0°F-3.3°C 19.8°F-6.8°C 77% Calm Calm -- 30.32 in1026.8 mb - 0.00 in0.0 mm 0.00 in0.0 mm
12:40 AM 25.9°F-3.4°C 19.7°F-6.8°C 77% Calm Calm -- 30.33 in1027.1 mb - 0.00 in0.0 mm 0.00 in0.0 mm
12:50 AM 25.7°F-3.5°C 19.8°F-6.8°C 78% Calm Calm -- 30.33 in1027.1 mb - 0.00 in0.0 mm 0.00 in0.0 mm
01:00 AM 25.6°F-3.6°C 20.0°F-6.7°C 79% Calm Calm -- 30.33 in1027.1 mb - 0.00 in0.0 mm 0.00 in0.0 mm
01:10 AM 25.5°F-3.6°C 19.9°F-6.7°C 79% Calm Calm -- 30.33 in1027.1 mb - 0.00 in0.0 mm 0.00 in0.0 mm
01:20 AM 25.4°F-3.7°C 20.1°F-6.6°C 80% Calm Calm -- 30.32 in1026.8 mb - 0.00 in0.0 mm 0.00 in0.0 mm
01:30 AM 25.4°F-3.7°C 20.1°F-6.6°C 80% Calm Calm -- 30.33 in1027.1 mb - 0.00 in0.0 mm 0.00 in0.0 mm
01:40 AM 25.3°F-3.7°C 20.0°F-6.7°C 80% Calm Calm -- 30.33 in1027.1 mb - 0.00 in0.0 mm 0.00 in0.0 mm
01:50 AM 25.2°F-3.8°C 20.2°F-6.6°C 81% Calm Calm -- 30.32 in1026.8 mb - 0.00 in0.0 mm 0.00 in0.0 mm
02:00 AM 25.2°F-3.8°C 20.2°F-6.6°C 81% Calm Calm -- 30.32 in1026.8 mb - 0.00 in0.0 mm 0.00 in0.0 mm
02:10 AM 25.1°F-3.8°C 20.4°F-6.4°C 82% Calm Calm -- 30.33 in1027.1 mb - 0.00 in0.0 mm 0.00 in0.0 mm
02:20 AM 25.1°F-3.8°C 20.3°F-6.5°C 82% Calm Calm -- 30.32 in1026.8 mb - 0.00 in0.0 mm 0.00 in0.0 mm
02:30 AM 25.1°F-3.8°C 20.4°F-6.4°C 82% Calm Calm -- 30.31 in1026.4 mb - 0.00 in0.0 mm 0.00 in0.0 mm
02:40 AM 24.9°F-3.9°C 20.2°F-6.6°C 82% Calm Calm -- 30.31 in1026.4 mb - 0.00 in0.0 mm 0.00 in0.0 mm
02:50 AM 24.8°F-4.0°C 20.1°F-6.6°C 82% Calm Calm -- 30.30 in1026.1 mb - 0.00 in0.0 mm 0.00 in0.0 mm
03:00 AM 24.8°F-4.0°C 20.1°F-6.6°C 82% Calm Calm -- 30.29 in1025.7 mb - 0.00 in0.0 mm 0.00 in0.0 mm
03:10 AM 24.8°F-4.0°C 20.1°F-6.6°C 82% Calm Calm -- 30.29 in1025.7 mb - 0.00 in0.0 mm 0.00 in0.0 mm
03:20 AM 24.9°F-3.9°C 20.2°F-6.6°C 82% Calm Calm -- 30.28 in1025.4 mb - 0.00 in0.0 mm 0.00 in0.0 mm
03:30 AM 24.9°F-3.9°C 20.2°F-6.6°C 82% Calm Calm -- 30.28 in1025.4 mb - 0.00 in0.0 mm 0.00 in0.0 mm
03:40 AM 24.7°F-4.1°C 20.0°F-6.7°C 82% Calm Calm -- 30.27 in1025.1 mb - 0.00 in0.0 mm 0.00 in0.0 mm
03:50 AM 24.5°F-4.2°C 19.8°F-6.8°C 82% Calm Calm -- 30.27 in1025.1 mb - 0.00 in0.0 mm 0.00 in0.0 mm
04:00 AM 24.4°F-4.2°C 19.7°F-6.8°C 82% Calm Calm -- 30.27 in1025.1 mb - 0.00 in0.0 mm 0.00 in0.0 mm
04:10 AM 24.2°F-4.3°C 19.5°F-6.9°C 82% Calm Calm -- 30.27 in1025.1 mb - 0.00 in0.0 mm 0.00 in0.0 mm
04:20 AM 24.1°F-4.4°C 19.4°F-7.0°C 82% Calm Calm -- 30.27 in1025.1 mb - 0.00 in0.0 mm 0.00 in0.0 mm
04:30 AM 23.9°F-4.5°C 19.5°F-6.9°C 83% Calm Calm -- 30.27 in1025.1 mb - 0.00 in0.0 mm 0.00 in0.0 mm
04:40 AM 23.9°F-4.5°C 19.5°F-6.9°C 83% Calm Calm -- 30.27 in1025.1 mb - 0.00 in0.0 mm 0.00 in0.0 mm
04:50 AM 24.1°F-4.4°C 19.7°F-6.8°C 83% Calm Calm -- 30.26 in1024.7 mb - 0.00 in0.0 mm 0.00 in0.0 mm
05:00 AM 24.1°F-4.4°C 19.7°F-6.8°C 83% Calm Calm -- 30.26 in1024.7 mb - 0.00 in0.0 mm 0.00 in0.0 mm
05:10 AM 24.0°F-4.4°C 19.6°F-6.9°C 83% Calm Calm -- 30.25 in1024.4 mb - 0.00 in0.0 mm 0.00 in0.0 mm
05:20 AM 24.0°F-4.4°C 19.9°F-6.7°C 84% Calm Calm -- 30.25 in1024.4 mb - 0.00 in0.0 mm 0.00 in0.0 mm
05:30 AM 24.0°F-4.4°C 19.9°F-6.7°C 84% Calm Calm -- 30.25 in1024.4 mb - 0.00 in0.0 mm 0.00 in0.0 mm
05:40 AM 24.2°F-4.3°C 20.1°F-6.6°C 84% Calm Calm -- 30.25 in1024.4 mb - 0.00 in0.0 mm 0.00 in0.0 mm
05:50 AM 24.5°F-4.2°C 20.4°F-6.4°C 84% Calm Calm -- 30.25 in1024.4 mb - 0.00 in0.0 mm 0.00 in0.0 mm
06:00 AM 24.5°F-4.2°C 20.4°F-6.4°C 84% Calm Calm -- 30.24 in1024.0 mb - 0.00 in0.0 mm 0.00 in0.0 mm
06:10 AM 24.6°F-4.1°C 20.5°F-6.4°C 84% Calm Calm -- 30.24 in1024.0 mb - 0.00 in0.0 mm 0.00 in0.0 mm
06:20 AM 25.2°F-3.8°C 21.3°F-5.9°C 85% Calm Calm -- 30.24 in1024.0 mb - 0.00 in0.0 mm 0.00 in0.0 mm
06:30 AM 25.4°F-3.7°C 21.5°F-5.8°C 85% Calm Calm -- 30.24 in1024.0 mb - 0.00 in0.0 mm 0.00 in0.0 mm
06:40 AM 26.0°F-3.3°C 21.8°F-5.7°C 84% Calm Calm -- 30.23 in1023.7 mb - 0.00 in0.0 mm 0.00 in0.0 mm
06:50 AM 26.2°F-3.2°C 21.7°F-5.7°C 83% Calm Calm -- 30.23 in1023.7 mb - 0.00 in0.0 mm 0.00 in0.0 mm
07:00 AM 26.1°F-3.3°C 21.4°F-5.9°C 82% Calm Calm -- 30.23 in1023.7 mb - 0.00 in0.0 mm 0.00 in0.0 mm
07:10 AM 26.2°F-3.2°C 21.4°F-5.9°C 82% Calm Calm -- 30.22 in1023.4 mb - 0.00 in0.0 mm 0.00 in0.0 mm
07:20 AM 26.6°F-3.0°C 21.6°F-5.8°C 81% Calm Calm -- 30.22 in1023.4 mb - 0.00 in0.0 mm 0.00 in0.0 mm
07:30 AM 27.0°F-2.8°C 21.7°F-5.7°C 80% Calm Calm -- 30.21 in1023.0 mb - 0.00 in0.0 mm 0.00 in0.0 mm
07:40 AM 27.3°F-2.6°C 21.6°F-5.8°C 79% Calm Calm -- 30.21 in1023.0 mb - 0.00 in0.0 mm 0.00 in0.0 mm
07:50 AM 27.5°F-2.5°C 21.8°F-5.7°C 79% Calm Calm -- 30.20 in1022.7 mb - 0.00 in0.0 mm 0.00 in0.0 mm
08:00 AM 27.7°F-2.4°C 21.7°F-5.7°C 78% Calm Calm 3.5 mph5.6 kmh 30.20 in1022.7 mb - 0.00 in0.0 mm 0.00 in0.0 mm
08:10 AM 28.1°F-2.2°C 21.8°F-5.7°C 77% Calm Calm -- 30.20 in1022.7 mb - 0.00 in0.0 mm 0.00 in0.0 mm
08:20 AM 28.7°F-1.8°C 22.1°F-5.5°C 76% Calm Calm -- 30.19 in1022.4 mb - 0.00 in0.0 mm 0.00 in0.0 mm
08:30 AM 29.1°F-1.6°C 22.2°F-5.4°C 75% 1.2 mph ESE1.9 kmh ESE 2.3 mph3.7 kmh 30.18 in1022.0 mb - 0.00 in0.0 mm 0.00 in0.0 mm
08:40 AM 29.6°F-1.3°C 22.3°F-5.4°C 74% Calm Calm -- 30.17 in1021.7 mb - 0.00 in0.0 mm 0.00 in0.0 mm
08:50 AM 30.4°F-0.9°C 22.5°F-5.3°C 72% 1.2 mph S1.9 kmh S 3.5 mph5.6 kmh 30.17 in1021.7 mb - 0.00 in0.0 mm 0.00 in0.0 mm
09:00 AM 32.0°F0.0°C 22.3°F-5.4°C 67% 2.3 mph SSW3.7 kmh SSW 6.9 mph11.1 kmh 30.16 in1021.3 mb - 0.00 in0.0 mm 0.00 in0.0 mm
09:10 AM 33.4°F0.8°C 22.5°F-5.3°C 64% 1.2 mph S1.9 kmh S 4.6 mph7.4 kmh 30.16 in1021.3 mb - 0.00 in0.0 mm 0.00 in0.0 mm
09:20 AM 34.4°F1.3°C 21.9°F-5.6°C 60% 3.5 mph SSW5.6 kmh SSW 5.8 mph9.3 kmh 30.15 in1021.0 mb - 0.00 in0.0 mm 0.00 in0.0 mm
09:30 AM 35.3°F1.8°C 22.0°F-5.6°C 58% 2.3 mph SSW3.7 kmh SSW 2.3 mph3.7 kmh 30.14 in1020.7 mb - 0.00 in0.0 mm 0.00 in0.0 mm
09:40 AM 36.2°F2.3°C 22.0°F-5.6°C 56% 3.5 mph S5.6 kmh S 4.6 mph7.4 kmh 30.13 in1020.3 mb - 0.00 in0.0 mm 0.00 in0.0 mm
09:50 AM 37.1°F2.8°C 22.0°F-5.6°C 54% 1.2 mph SSW1.9 kmh SSW -- 30.13 in1020.3 mb - 0.00 in0.0 mm 0.00 in0.0 mm
10:00 AM 38.0°F3.3°C 21.9°F-5.6°C 52% 1.2 mph SSW1.9 kmh SSW 2.3 mph3.7 kmh 30.12 in1020.0 mb - 0.00 in0.0 mm 0.00 in0.0 mm
10:10 AM 38.7°F3.7°C 21.1°F-6.1°C 49% 2.3 mph SSW3.7 kmh SSW 8.1 mph13.0 kmh 30.12 in1020.0 mb - 0.00 in0.0 mm 0.00 in0.0 mm
10:20 AM 39.3°F4.1°C 21.7°F-5.7°C 49% 4.6 mph S7.4 kmh S 8.1 mph13.0 kmh 30.11 in1019.6 mb - 0.00 in0.0 mm 0.00 in0.0 mm
10:30 AM 39.9°F4.4°C 21.8°F-5.7°C 48% 4.6 mph SSW7.4 kmh SSW 9.2 mph14.8 kmh 30.09 in1019.0 mb - 0.00 in0.0 mm 0.00 in0.0 mm
10:40 AM 40.6°F4.8°C 22.5°F-5.3°C 48% 2.3 mph SSW3.7 kmh SSW 3.5 mph5.6 kmh 30.08 in1018.6 mb - 0.00 in0.0 mm 0.00 in0.0 mm
10:50 AM 41.4°F5.2°C 22.1°F-5.5°C 46% 3.5 mph S5.6 kmh S 4.6 mph7.4 kmh 30.07 in1018.3 mb - 0.00 in0.0 mm 0.00 in0.0 mm
11:00 AM 41.8°F5.4°C 22.5°F-5.3°C 46% 4.6 mph S7.4 kmh S 6.9 mph11.1 kmh 30.06 in1017.9 mb - 0.00 in0.0 mm 0.00 in0.0 mm
11:10 AM 42.6°F5.9°C 22.7°F-5.2°C 45% 3.5 mph S5.6 kmh S 9.2 mph14.8 kmh 30.06 in1017.9 mb - 0.00 in0.0 mm 0.00 in0.0 mm
11:20 AM 43.5°F6.4°C 23.5°F-4.7°C 45% 3.5 mph SSW5.6 kmh SSW 8.1 mph13.0 kmh 30.06 in1017.9 mb - 0.00 in0.0 mm 0.00 in0.0 mm
11:30 AM 44.4°F6.9°C 23.3°F-4.8°C 43% 3.5 mph SSW5.6 kmh SSW 3.5 mph5.6 kmh 30.06 in1017.9 mb - 0.00 in0.0 mm 0.00 in0.0 mm
11:40 AM 45.4°F7.4°C 24.2°F-4.3°C 43% 1.2 mph SW1.9 kmh SW 3.5 mph5.6 kmh 30.06 in1017.9 mb - 0.00 in0.0 mm 0.00 in0.0 mm
11:50 AM 46.0°F7.8°C 23.6°F-4.7°C 41% 3.5 mph SSW5.6 kmh SSW 5.8 mph9.3 kmh 30.05 in1017.6 mb - 0.00 in0.0 mm 0.00 in0.0 mm
12:00 PM 47.1°F8.4°C 24.0°F-4.4°C 40% 4.6 mph SSW7.4 kmh SSW 6.9 mph11.1 kmh 30.05 in1017.6 mb - 0.00 in0.0 mm 0.00 in0.0 mm
12:10 PM 47.7°F8.7°C 24.5°F-4.2°C 40% 2.3 mph S3.7 kmh S 12.7 mph20.4 kmh 30.05 in1017.6 mb - 0.00 in0.0 mm 0.00 in0.0 mm
12:20 PM 47.9°F8.8°C 24.1°F-4.4°C 39% 3.5 mph SSW5.6 kmh SSW 6.9 mph11.1 kmh 30.05 in1017.6 mb - 0.00 in0.0 mm 0.00 in0.0 mm
12:30 PM 48.5°F9.2°C 24.6°F-4.1°C 39% Calm Calm 2.3 mph3.7 kmh 30.04 in1017.3 mb - 0.00 in0.0 mm 0.00 in0.0 mm
12:40 PM 48.8°F9.3°C 24.3°F-4.3°C 38% 1.2 mph SW1.9 kmh SW -- 30.04 in1017.3 mb - 0.00 in0.0 mm 0.00 in0.0 mm
12:50 PM 50.0°F10.0°C 26.0°F-3.3°C 39% 2.3 mph SSW3.7 kmh SSW 4.6 mph7.4 kmh 30.04 in1017.3 mb - 0.00 in0.0 mm 0.00 in0.0 mm
01:00 PM 50.5°F10.3°C 25.2°F-3.8°C 37% 3.5 mph SW5.6 kmh SW 5.8 mph9.3 kmh 30.03 in1016.9 mb - 0.00 in0.0 mm 0.00 in0.0 mm
01:10 PM 51.0°F10.6°C 26.2°F-3.2°C 38% Calm Calm 6.9 mph11.1 kmh 30.03 in1016.9 mb - 0.00 in0.0 mm 0.00 in0.0 mm
01:20 PM 51.2°F10.7°C 25.7°F-3.5°C 37% 2.3 mph SW3.7 kmh SW 5.8 mph9.3 kmh 30.02 in1016.6 mb - 0.00 in0.0 mm 0.00 in0.0 mm
01:30 PM 51.4°F10.8°C 26.0°F-3.3°C 37% 2.3 mph SSW3.7 kmh SSW 3.5 mph5.6 kmh 30.02 in1016.6 mb - 0.00 in0.0 mm 0.00 in0.0 mm
01:40 PM 51.6°F10.9°C 25.5°F-3.6°C 36% Calm Calm -- 30.01 in1016.3 mb - 0.00 in0.0 mm 0.00 in0.0 mm
01:50 PM 52.0°F11.1°C 26.5°F-3.1°C 37% Calm Calm -- 30.01 in1016.3 mb - 0.00 in0.0 mm 0.00 in0.0 mm
02:00 PM 52.7°F11.5°C 26.5°F-3.1°C 36% 1.2 mph SW1.9 kmh SW -- 30.00 in1015.9 mb - 0.00 in0.0 mm 0.00 in0.0 mm
02:10 PM 53.0°F11.7°C 26.7°F-2.9°C 36% Calm Calm -- 30.00 in1015.9 mb - 0.00 in0.0 mm 0.00 in0.0 mm
02:20 PM 53.1°F11.7°C 26.8°F-2.9°C 36% 4.6 mph WSW7.4 kmh WSW 8.1 mph13.0 kmh 30.00 in1015.9 mb - 0.00 in0.0 mm 0.00 in0.0 mm
02:30 PM 53.5°F11.9°C 27.2°F-2.7°C 36% 3.5 mph SW5.6 kmh SW 5.8 mph9.3 kmh 29.99 in1015.6 mb - 0.00 in0.0 mm 0.00 in0.0 mm
02:40 PM 54.5°F12.5°C 27.3°F-2.6°C 35% Calm Calm 3.5 mph5.6 kmh 29.98 in1015.2 mb - 0.00 in0.0 mm 0.00 in0.0 mm
02:50 PM 54.8°F12.7°C 27.7°F-2.4°C 35% Calm Calm -- 29.98 in1015.2 mb - 0.00 in0.0 mm 0.00 in0.0 mm
03:00 PM 55.0°F12.8°C 28.5°F-1.9°C 36% Calm Calm -- 29.98 in1015.2 mb - 0.00 in0.0 mm 0.00 in0.0 mm
03:10 PM 55.8°F13.2°C 27.8°F-2.3°C 34% Calm Calm -- 29.98 in1015.2 mb - 0.00 in0.0 mm 0.00 in0.0 mm
03:20 PM 56.0°F13.3°C 28.7°F-1.8°C 35% Calm Calm 2.3 mph3.7 kmh 29.98 in1015.2 mb - 0.00 in0.0 mm 0.00 in0.0 mm
03:30 PM 56.5°F13.6°C 28.4°F-2.0°C 34% Calm Calm 5.8 mph9.3 kmh 29.98 in1015.2 mb - 0.00 in0.0 mm 0.00 in0.0 mm
03:40 PM 57.0°F13.9°C 28.2°F-2.1°C 33% Calm Calm 1.2 mph1.9 kmh 29.98 in1015.2 mb - 0.00 in0.0 mm 0.00 in0.0 mm
03:50 PM 57.8°F14.3°C 28.9°F-1.7°C 33% 1.2 mph SW1.9 kmh SW 5.8 mph9.3 kmh 29.97 in1014.9 mb - 0.00 in0.0 mm 0.00 in0.0 mm
04:00 PM 58.0°F14.4°C 28.3°F-2.1°C 32% Calm Calm -- 29.97 in1014.9 mb - 0.00 in0.0 mm 0.00 in0.0 mm
04:10 PM 58.1°F14.5°C 28.3°F-2.1°C 32% Calm Calm 3.5 mph5.6 kmh 29.97 in1014.9 mb - 0.00 in0.0 mm 0.00 in0.0 mm
04:20 PM 57.5°F14.2°C 28.6°F-1.9°C 33% Calm Calm -- 29.97 in1014.9 mb - 0.00 in0.0 mm 0.00 in0.0 mm
04:30 PM 57.2°F14.0°C 28.3°F-2.1°C 33% Calm Calm -- 29.97 in1014.9 mb - 0.00 in0.0 mm 0.00 in0.0 mm
04:40 PM 57.6°F14.2°C 29.4°F-1.4°C 34% Calm Calm 1.2 mph1.9 kmh 29.97 in1014.9 mb - 0.00 in0.0 mm 0.00 in0.0 mm
04:50 PM 57.9°F14.4°C 28.9°F-1.7°C 33% Calm Calm -- 29.97 in1014.9 mb - 0.00 in0.0 mm 0.00 in0.0 mm
05:00 PM 58.0°F14.4°C 29.8°F-1.2°C 34% Calm Calm 2.3 mph3.7 kmh 29.97 in1014.9 mb - 0.00 in0.0 mm 0.00 in0.0 mm
05:10 PM 57.5°F14.2°C 29.3°F-1.5°C 34% 2.3 mph WSW3.7 kmh WSW 2.3 mph3.7 kmh 29.97 in1014.9 mb - 0.00 in0.0 mm 0.00 in0.0 mm
05:20 PM 56.6°F13.7°C 29.3°F-1.5°C 35% Calm Calm -- 29.97 in1014.9 mb - 0.00 in0.0 mm 0.00 in0.0 mm
05:30 PM 56.0°F13.3°C 29.4°F-1.4°C 36% Calm Calm -- 29.97 in1014.9 mb - 0.00 in0.0 mm 0.00 in0.0 mm
05:40 PM 55.5°F13.1°C 29.6°F-1.3°C 37% Calm Calm -- 29.97 in1014.9 mb - 0.00 in0.0 mm 0.00 in0.0 mm
05:50 PM 54.9°F12.7°C 29.7°F-1.3°C 38% Calm Calm -- 29.98 in1015.2 mb - 0.00 in0.0 mm 0.00 in0.0 mm
06:00 PM 54.2°F12.3°C 29.1°F-1.6°C 38% Calm Calm -- 29.98 in1015.2 mb - 0.00 in0.0 mm 0.00 in0.0 mm
06:10 PM 53.4°F11.9°C 29.7°F-1.3°C 40% Calm Calm -- 29.98 in1015.2 mb - 0.00 in0.0 mm 0.00 in0.0 mm
06:20 PM 52.5°F11.4°C 29.4°F-1.4°C 41% Calm Calm -- 29.98 in1015.2 mb - 0.00 in0.0 mm 0.00 in0.0 mm
06:30 PM 51.2°F10.7°C 30.0°F-1.1°C 44% Calm Calm -- 29.98 in1015.2 mb - 0.00 in0.0 mm 0.00 in0.0 mm
06:40 PM 49.6°F9.8°C 29.6°F-1.3°C 46% Calm Calm -- 29.98 in1015.2 mb - 0.00 in0.0 mm 0.00 in0.0 mm
06:50 PM 48.2°F9.0°C 30.4°F-0.9°C 50% Calm Calm -- 29.98 in1015.2 mb - 0.00 in0.0 mm 0.00 in0.0 mm
07:00 PM 47.0°F8.3°C 30.3°F-0.9°C 52% Calm Calm -- 29.98 in1015.2 mb - 0.00 in0.0 mm 0.00 in0.0 mm
07:10 PM 45.9°F7.7°C 30.2°F-1.0°C 54% Calm Calm -- 29.98 in1015.2 mb - 0.00 in0.0 mm 0.00 in0.0 mm
07:20 PM 44.8°F7.1°C 30.5°F-0.8°C 57% Calm Calm -- 29.99 in1015.6 mb - 0.00 in0.0 mm 0.00 in0.0 mm
07:30 PM 43.8°F6.6°C 30.4°F-0.9°C 59% Calm Calm -- 29.99 in1015.6 mb - 0.00 in0.0 mm 0.00 in0.0 mm
07:40 PM 43.1°F6.2°C 30.1°F-1.1°C 60% Calm Calm -- 29.99 in1015.6 mb - 0.00 in0.0 mm 0.00 in0.0 mm
07:50 PM 42.3°F5.7°C 30.2°F-1.0°C 62% Calm Calm -- 29.99 in1015.6 mb - 0.00 in0.0 mm 0.00 in0.0 mm
08:00 PM 41.6°F5.3°C 30.3°F-0.9°C 64% Calm Calm -- 30.00 in1015.9 mb - 0.00 in0.0 mm 0.00 in0.0 mm
08:10 PM 41.0°F5.0°C 30.1°F-1.1°C 65% Calm Calm -- 30.00 in1015.9 mb - 0.00 in0.0 mm 0.00 in0.0 mm
08:20 PM 40.4°F4.7°C 30.0°F-1.1°C 66% Calm Calm -- 30.00 in1015.9 mb - 0.00 in0.0 mm 0.00 in0.0 mm
08:30 PM 40.0°F4.4°C 30.3°F-0.9°C 68% Calm Calm -- 30.00 in1015.9 mb - 0.00 in0.0 mm 0.00 in0.0 mm
08:40 PM 39.6°F4.2°C 30.2°F-1.0°C 69% Calm Calm -- 30.00 in1015.9 mb - 0.00 in0.0 mm 0.00 in0.0 mm
08:50 PM 39.1°F3.9°C 30.1°F-1.1°C 70% Calm Calm -- 30.00 in1015.9 mb - 0.00 in0.0 mm 0.00 in0.0 mm
09:00 PM 38.6°F3.7°C 29.7°F-1.3°C 70% Calm Calm -- 30.00 in1015.9 mb - 0.00 in0.0 mm 0.00 in0.0 mm
09:10 PM 38.2°F3.4°C 30.0°F-1.1°C 72% Calm Calm -- 30.00 in1015.9 mb - 0.00 in0.0 mm 0.00 in0.0 mm
09:20 PM 37.8°F3.2°C 29.6°F-1.3°C 72% Calm Calm -- 30.00 in1015.9 mb - 0.00 in0.0 mm 0.00 in0.0 mm
09:30 PM 37.3°F2.9°C 29.5°F-1.4°C 73% Calm Calm -- 30.00 in1015.9 mb - 0.00 in0.0 mm 0.00 in0.0 mm
09:40 PM 36.9°F2.7°C 29.4°F-1.4°C 74% Calm Calm -- 30.01 in1016.3 mb - 0.00 in0.0 mm 0.00 in0.0 mm
09:50 PM 36.5°F2.5°C 29.0°F-1.7°C 74% Calm Calm -- 30.01 in1016.3 mb - 0.00 in0.0 mm 0.00 in0.0 mm
10:00 PM 36.2°F2.3°C 29.3°F-1.5°C 76% Calm Calm -- 30.01 in1016.3 mb - 0.00 in0.0 mm 0.00 in0.0 mm
10:10 PM 35.9°F2.2°C 29.1°F-1.6°C 76% Calm Calm -- 30.01 in1016.3 mb - 0.00 in0.0 mm 0.00 in0.0 mm
10:20 PM 35.6°F2.0°C 29.1°F-1.6°C 77% Calm Calm -- 30.00 in1015.9 mb - 0.00 in0.0 mm 0.00 in0.0 mm
10:30 PM 35.2°F1.8°C 28.7°F-1.8°C 77% Calm Calm -- 30.01 in1016.3 mb - 0.00 in0.0 mm 0.00 in0.0 mm
10:40 PM 34.9°F1.6°C 28.7°F-1.8°C 78% Calm Calm -- 30.01 in1016.3 mb - 0.00 in0.0 mm 0.00 in0.0 mm
10:50 PM 34.5°F1.4°C 28.3°F-2.1°C 78% Calm Calm -- 30.01 in1016.3 mb - 0.00 in0.0 mm 0.00 in0.0 mm
11:00 PM 34.2°F1.2°C 28.4°F-2.0°C 79% Calm Calm -- 30.01 in1016.3 mb - 0.00 in0.0 mm 0.00 in0.0 mm
11:10 PM 34.0°F1.1°C 28.5°F-1.9°C 80% Calm Calm -- 30.01 in1016.3 mb - 0.00 in0.0 mm 0.00 in0.0 mm
11:20 PM 33.8°F1.0°C 28.3°F-2.1°C 80% Calm Calm -- 30.01 in1016.3 mb - 0.00 in0.0 mm 0.00 in0.0 mm
11:30 PM 33.6°F0.9°C 28.1°F-2.2°C 80% Calm Calm -- 30.01 in1016.3 mb - 0.00 in0.0 mm 0.00 in0.0 mm
11:40 PM 33.3°F0.7°C 28.1°F-2.2°C 81% Calm Calm -- 30.01 in1016.3 mb - 0.00 in0.0 mm 0.00 in0.0 mm
11:50 PM 33.1°F0.6°C 27.9°F-2.3°C 81% Calm Calm -- 30.01 in1016.3 mb - 0.00 in0.0 mm 0.00 in0.0 mm